createdAt,value
2023-04-05T00:00:21.055Z,1.8
2023-04-05T00:06:44.039Z,2.6
2023-04-05T00:13:03.978Z,2.6
2023-04-05T00:19:27.073Z,0.9
2023-04-05T00:25:46.996Z,0.9
2023-04-05T00:32:10.023Z,4.8
2023-04-05T00:38:29.968Z,4.8
2023-04-05T00:44:52.897Z,5.4
2023-04-05T00:51:12.903Z,5.4
2023-04-05T00:57:36.042Z,4.9
2023-04-05T01:03:55.988Z,4.9
2023-04-05T01:10:19.049Z,4.4
2023-04-05T01:16:39.044Z,4.4
2023-04-05T01:23:02.134Z,1.6
2023-04-05T01:29:22.011Z,1.6
2023-04-05T01:35:45.086Z,4.4
2023-04-05T01:42:05.045Z,4.4
2023-04-05T01:48:28.014Z,1
2023-04-05T01:54:47.978Z,1
2023-04-05T02:01:11.101Z,2.8
2023-04-05T02:07:30.929Z,2.8
2023-04-05T02:13:53.943Z,3.9
2023-04-05T02:20:13.928Z,3.9
2023-04-05T02:26:37.101Z,2.3
2023-04-05T02:32:57.059Z,2.3
2023-04-05T02:39:19.966Z,2.2
2023-04-05T02:45:40.001Z,2.2
2023-04-05T02:52:03.038Z,1.7
2023-04-05T02:58:22.980Z,1.7
2023-04-05T03:04:45.915Z,3
2023-04-05T03:11:05.946Z,3
2023-04-05T03:34:29.919Z,5.6
2023-04-05T03:40:52.886Z,11.5
2023-04-05T03:47:13.012Z,11.5
2023-04-05T03:53:36.019Z,11.5
2023-04-05T03:59:56.018Z,11.5
2023-04-05T04:06:19.658Z,5.1
2023-04-05T04:12:39.205Z,5.1
2023-04-05T04:19:02.719Z,13.7
2023-04-05T04:25:22.887Z,13.7
2023-04-05T04:31:46.013Z,2.4
2023-04-05T04:38:05.882Z,2.4
2023-04-05T04:44:28.932Z,2.7
2023-04-05T04:50:49.063Z,2.7
2023-04-05T04:57:11.953Z,20.1
2023-04-05T05:03:31.949Z,20.1
2023-04-05T05:09:55.075Z,2.4
2023-04-05T05:16:15.002Z,2.4
2023-04-05T05:22:37.957Z,2.4
2023-04-05T05:28:58.232Z,2.4
2023-04-05T05:35:21.012Z,10.2
2023-04-05T05:41:40.905Z,10.2
2023-04-05T05:48:04.172Z,10
2023-04-05T05:54:23.980Z,10
2023-04-05T06:00:48.390Z,3.2
2023-04-05T06:07:07.062Z,3.2
2023-04-05T06:13:29.926Z,5.5
2023-04-05T06:19:50.850Z,5.5
2023-04-05T06:26:13.083Z,6.4
2023-04-05T06:32:32.943Z,6.4
2023-04-05T06:38:56.077Z,4.1
2023-04-05T06:45:15.954Z,4.1
2023-04-05T06:51:38.911Z,3.1
2023-04-05T06:57:58.962Z,3.1
2023-04-05T07:04:22.008Z,3.3
2023-04-05T07:10:42.194Z,3.3
2023-04-05T07:17:04.923Z,3.9
2023-04-05T07:23:24.948Z,3.9
2023-04-05T07:29:48.283Z,2.7
2023-04-05T07:36:07.985Z,2.7
2023-04-05T07:42:31.142Z,4.2
2023-04-05T07:48:50.986Z,4.2
2023-04-05T07:55:13.924Z,3.8
2023-04-05T08:01:33.972Z,3.8
2023-04-05T08:07:56.890Z,10.5
2023-04-05T08:14:17.030Z,10.5
2023-04-05T08:39:03.398Z,12.9
2023-04-05T08:45:22.902Z,12.9
2023-04-05T08:51:45.975Z,3.6
2023-04-05T08:58:06.002Z,3.6
2023-04-05T09:04:28.940Z,1.9
2023-04-05T09:10:48.994Z,1.9
2023-04-05T09:17:12.028Z,3.3
2023-04-05T09:23:31.975Z,3.3
2023-04-05T09:29:54.959Z,5.1
2023-04-05T09:36:15.032Z,5.1
2023-04-05T09:42:37.973Z,6.3
2023-04-05T09:48:58.169Z,6.3
2023-04-05T09:55:20.979Z,4.6
2023-04-05T10:01:41.728Z,4.6
2023-04-05T10:08:03.978Z,4.6
2023-04-05T10:14:23.954Z,4.6
2023-04-05T10:20:46.911Z,3.1
2023-04-05T10:27:06.979Z,3.1
2023-04-05T10:33:29.978Z,2.2
2023-04-05T10:39:49.958Z,2.2
2023-04-05T10:46:12.957Z,3.1
2023-04-05T10:52:32.963Z,3.1
2023-04-05T10:58:55.985Z,2.6
2023-04-05T11:05:15.911Z,2.6
2023-04-05T11:11:38.932Z,3.7
2023-04-05T11:17:58.968Z,3.7
2023-04-05T11:24:21.908Z,6.4
2023-04-05T11:30:42.211Z,6.4
2023-04-05T11:37:04.935Z,5.7
2023-04-05T11:43:24.985Z,5.7
2023-04-05T11:49:47.957Z,3.8
2023-04-05T11:56:07.920Z,3.8
2023-04-05T12:02:30.990Z,7.4
2023-04-05T12:08:50.950Z,7.4
2023-04-05T12:15:13.951Z,2.3
2023-04-05T12:21:33.896Z,2.3
2023-04-05T12:27:57.197Z,2.2
2023-04-05T12:34:17.159Z,2.2
2023-04-05T12:40:40.434Z,6.1
2023-04-05T12:47:00.152Z,6.1
2023-04-05T12:53:23.192Z,1.4
2023-04-05T12:59:43.010Z,1.4
2023-04-05T13:06:05.940Z,2.1
2023-04-05T13:12:25.970Z,2.1
2023-04-05T13:18:48.928Z,0.9
2023-04-05T13:25:08.949Z,0.9
2023-04-05T13:31:32.042Z,4
2023-04-05T13:37:51.910Z,4
2023-04-05T13:44:14.960Z,3.2
2023-04-05T13:50:34.896Z,3.2
2023-04-05T13:56:57.938Z,2.7
2023-04-05T14:14:46.606Z,6.4
2023-04-05T14:21:09.437Z,6.5
2023-04-05T14:27:28.898Z,6.5
2023-04-05T14:33:51.966Z,6.5
2023-04-05T14:40:11.927Z,6.5
2023-04-05T14:46:34.960Z,2.4
2023-04-05T14:52:54.944Z,2.4
2023-04-05T14:59:17.938Z,1.5
2023-04-05T15:05:37.961Z,1.5
2023-04-05T15:12:00.961Z,4
2023-04-05T15:18:20.974Z,4
2023-04-05T15:24:43.898Z,6.2
2023-04-05T15:31:04.031Z,6.2
2023-04-05T15:37:26.904Z,2.2
2023-04-05T15:43:46.892Z,2.2
2023-04-05T15:50:10.049Z,5.9
2023-04-05T15:56:29.932Z,5.9
2023-04-05T16:02:55.395Z,2.4
2023-04-05T16:09:12.959Z,2.4
2023-04-05T16:15:36.058Z,2.9
2023-04-05T16:21:55.939Z,2.9
2023-04-05T16:28:18.959Z,5.4
2023-04-05T16:34:38.955Z,5.4
2023-04-05T16:41:01.905Z,2.3
2023-04-05T16:47:21.967Z,2.3
2023-04-05T16:53:44.966Z,3.2
2023-04-05T17:00:04.963Z,3.2
2023-04-05T17:06:28.005Z,8.2
2023-04-05T17:12:48.122Z,8.2
2023-04-05T17:19:11.036Z,4.6
2023-04-05T17:25:31.006Z,4.6
2023-04-05T17:31:53.935Z,6.1
2023-04-05T17:38:14.001Z,6.1
2023-04-05T17:44:36.931Z,5.1
2023-04-05T17:50:56.946Z,5.1
2023-04-05T17:57:19.931Z,2.2
2023-04-05T18:03:40.183Z,2.2
2023-04-05T18:10:03.001Z,2.2
2023-04-05T18:16:22.924Z,2.2
2023-04-05T18:22:45.955Z,7
2023-04-05T18:29:06.122Z,7
2023-04-05T18:35:28.966Z,4.1
2023-04-05T18:41:49.105Z,4.1
2023-04-05T18:48:12.029Z,3.3
2023-04-05T18:54:31.979Z,3.3
2023-04-05T19:00:55.082Z,5.5
2023-04-05T19:07:15.010Z,5.5
2023-04-05T19:13:37.995Z,11.8
2023-04-05T19:19:58.036Z,11.8
2023-04-05T19:26:22.520Z,5.3
2023-04-05T19:42:09.849Z,9.8
2023-04-05T19:48:29.920Z,9.8
2023-04-05T19:54:53.901Z,15.1
2023-04-05T20:01:13.936Z,15.1
2023-04-05T20:07:36.967Z,6.4
2023-04-05T20:13:57.050Z,6.4
2023-04-05T20:20:20.110Z,5.3
2023-04-05T20:26:39.967Z,5.3
2023-04-05T20:33:03.068Z,5.4
2023-04-05T20:39:23.247Z,5.4
2023-04-05T20:45:46.044Z,3.4
2023-04-05T20:52:06.064Z,3.4
2023-04-05T20:58:29.111Z,5.3
2023-04-05T21:04:49.061Z,5.3
2023-04-05T21:11:12.062Z,3.6
2023-04-05T21:17:32.076Z,3.6
2023-04-05T21:23:55.043Z,14.6
2023-04-05T21:30:15.007Z,14.6
2023-04-05T21:36:37.994Z,9.8
2023-04-05T21:42:57.962Z,9.8
2023-04-05T21:49:21.044Z,9.3
2023-04-05T21:55:41.086Z,9.3
2023-04-05T22:02:04.029Z,5.3
2023-04-05T22:25:00.925Z,12.9
2023-04-05T22:31:21.062Z,12.9
2023-04-05T22:37:43.935Z,12.9
2023-04-05T22:44:04.125Z,12.9
2023-04-05T22:50:26.931Z,8.4
2023-04-05T22:56:46.934Z,8.4
2023-04-05T23:03:10.066Z,3.8
2023-04-05T23:09:30.128Z,3.8
2023-04-05T23:15:53.094Z,2.1
2023-04-05T23:22:13.069Z,2.1
2023-04-05T23:28:36.010Z,7.1
2023-04-05T23:34:56.032Z,7.1
2023-04-05T23:41:19.088Z,3.7
2023-04-05T23:47:38.974Z,3.7
2023-04-05T23:54:01.939Z,5.9
